Greenville, Indiana
Current Conditions -  °F | °C
As of 10:56 PM on Saturday 22 Nov 2014 (Local Time) from KSDF Reporting Station
Overcast Overcast  
Wind Chill: 51°   Ceiling: 13000
Heat Index: 51°   Visibility: 10mi
Dew Point: 33°   Wind: 6mph
Humidity: 50%   Direction: 130°SE
Pressure: 30.06"   Gusts: NA
Location:  38.37°N, 85.99°W
Report Text: KSDF 230356Z 13005KT 10SM OVC130 11/01 A3006 RMK AO2 SLP180 T01060006
Loading
Personal Weather Stations






























Interactive Weather Map New forecast layout! Learn more

10-Day Weather Forecast

Advertisements
Track Severe Weather on mobile